Terminal Aerodrome Forecast
Issued by NWS Mt. Holly, NJ

Home | Current Version | Previous Version | Text Only | Print | Product List | Glossary On
Versions: 1 2 3 4 5 6 7 8 9 10 11 12 13 14 15 16 17
000
FTUS41 KPHI 291700
TAFTTN
TAF
KTTN 291720Z 2918/3018 15006KT P6SM OVC100
     FM300000 16004KT 3SM -SN OVC040
     FM300100 17006KT 3/4SM -SN OVC015
     FM300400 18006KT P6SM OVC040
     FM300700 22006KT 3SM -SHSN OVC025
     FM300900 29010KT P6SM SCT015 OVC035
     FM301400 33015G30KT P6SM BKN035=

USA.gov is the U.S. government's official web portal to all federal, state and local government web resources and services.